Time;durP1;ratioP1;P1;durP2;ratioP2;P2;SDS_P1;SDS_P2;PMS_P1;PMS_P2;Temp;Humidity;BMP_temperature;BMP_pressure;BME280_temperature;BME280_humidity;BME280_pressure;Samples;Min_cycle;Max_cycle;Signal;HPM_P1;HPM_P2
2023/03/07 00:02:07;;;;;;;6.93;3.90;;;;;;;3.57;100.00;99875.38;5003885;28;20035;-71
2023/03/07 00:04:33;;;;;;;4.80;3.85;;;;;;;3.52;100.00;99882.41;4976678;28;20031;-71
2023/03/07 00:06:59;;;;;;;6.22;4.07;;;;;;;3.44;100.00;99872.00;4974478;28;20049;-71
2023/03/07 00:09:24;;;;;;;6.80;3.85;;;;;;;3.49;100.00;99885.00;4971200;28;20026;-72
2023/03/07 00:11:50;;;;;;;5.07;3.10;;;;;;;3.45;100.00;99886.81;4972422;28;20446;-71
2023/03/07 00:14:15;;;;;;;4.25;3.30;;;;;;;3.41;100.00;99880.75;4971416;28;20494;-71
2023/03/07 00:16:41;;;;;;;3.60;3.00;;;;;;;3.41;100.00;99877.22;4987131;28;20623;-71
2023/03/07 00:19:06;;;;;;;4.85;2.72;;;;;;;3.42;100.00;99873.75;4972579;28;20031;-72
2023/03/07 00:21:33;;;;;;;6.18;3.00;;;;;;;3.41;100.00;99870.28;4972332;28;20077;-72
2023/03/07 00:23:58;;;;;;;6.13;2.80;;;;;;;3.35;100.00;99874.69;4972298;28;20033;-71
2023/03/07 00:26:26;;;;;;;4.80;2.72;;;;;;;3.29;100.00;99872.97;4972293;28;20039;-71
2023/03/07 00:28:53;;;;;;;5.15;2.75;;;;;;;3.26;100.00;99864.28;4975515;28;20027;-71
2023/03/07 00:31:19;;;;;;;3.80;1.92;;;;;;;3.26;100.00;99866.88;4989466;28;20122;-72
2023/03/07 00:33:45;;;;;;;3.42;2.50;;;;;;;3.22;100.00;99871.28;4974771;28;20041;-72
2023/03/07 00:36:14;;;;;;;3.10;2.00;;;;;;;3.15;100.00;99857.38;4971612;28;20598;-71
2023/03/07 00:38:46;;;;;;;4.05;2.10;;;;;;;3.13;100.00;99866.97;4955064;28;20038;-72
2023/03/07 00:41:14;;;;;;;4.68;2.20;;;;;;;3.13;100.00;99868.72;4991293;28;20035;-71
2023/03/07 00:43:41;;;;;;;5.22;2.15;;;;;;;3.07;100.00;99867.03;4976290;28;20034;-72
2023/03/07 00:46:06;;;;;;;3.72;2.00;;;;;;;3.06;100.00;99870.50;4971375;28;20046;-72
2023/03/07 00:48:35;;;;;;;1.90;1.73;;;;;;;3.07;100.00;99858.34;4973355;28;20034;-72
2023/03/07 00:51:01;;;;;;;3.50;2.10;;;;;;;3.00;100.00;99865.34;4971912;28;20033;-72
2023/03/07 00:53:27;;;;;;;3.92;2.00;;;;;;;2.96;100.00;99858.38;4970898;28;20094;-73
2023/03/07 00:56:23;;;;;;;2.28;1.92;;;;;;;2.99;100.00;99861.88;4971343;28;20057;-72
2023/03/07 00:58:49;;;;;;;2.15;1.70;;;;;;;3.00;100.00;99866.19;4972328;28;20397;-72
2023/03/07 01:01:18;;;;;;;5.18;2.40;;;;;;;2.95;100.00;99857.53;4971581;28;20177;-72
2023/03/07 01:03:44;;;;;;;2.72;2.03;;;;;;;2.94;100.00;99847.94;4972015;28;20041;-72
2023/03/07 01:06:16;;;;;;;2.58;2.00;;;;;;;2.95;100.00;99857.53;4971824;28;20382;-72
2023/03/07 01:08:42;;;;;;;2.30;1.83;;;;;;;2.94;100.00;99850.56;5009370;28;20421;-72
2023/03/07 01:11:12;;;;;;;3.35;1.98;;;;;;;2.96;100.00;99854.00;4977095;28;20026;-72
2023/03/07 01:13:38;;;;;;;2.28;1.90;;;;;;;2.96;100.00;99845.31;4975360;28;20181;-72
2023/03/07 01:16:14;;;;;;;2.42;1.83;;;;;;;2.96;100.00;99851.41;4978135;28;20110;-72
2023/03/07 01:18:42;;;;;;;3.38;2.38;;;;;;;2.97;100.00;99840.06;5006534;28;20031;-71
2023/03/07 01:21:19;;;;;;;2.60;2.13;;;;;;;3.01;100.00;99848.75;4976588;28;20022;-72
2023/03/07 01:23:45;;;;;;;4.57;2.42;;;;;;;3.00;100.00;99836.56;4989628;28;20502;-72
2023/03/07 01:26:12;;;;;;;8.18;2.40;;;;;;;3.00;100.00;99841.81;5007671;28;20073;-72
2023/03/07 01:28:38;;;;;;;4.15;2.83;;;;;;;3.01;100.00;99841.78;4974384;28;20592;-73
2023/03/07 01:31:04;;;;;;;3.60;2.50;;;;;;;3.02;100.00;99824.34;4962182;28;20028;-72
2023/03/07 01:33:29;;;;;;;6.15;3.72;;;;;;;3.04;100.00;99830.41;5014368;28;20089;-71
2023/03/07 01:35:55;;;;;;;4.88;3.10;;;;;;;3.04;100.00;99826.94;4973956;28;20074;-72
2023/03/07 01:38:21;;;;;;;3.58;2.85;;;;;;;3.05;100.00;99813.88;4973700;28;20390;-71
2023/03/07 01:40:46;;;;;;;6.15;3.30;;;;;;;3.05;100.00;99824.31;4995481;28;20023;-72
2023/03/07 01:43:28;;;;;;;5.40;3.42;;;;;;;3.05;100.00;99819.09;4975592;28;20042;-72
2023/03/07 01:46:25;;;;;;;4.40;3.70;;;;;;;3.06;100.00;99819.94;4974905;28;20039;-71
2023/03/07 01:49:06;;;;;;;6.22;3.85;;;;;;;3.05;100.00;99807.78;4992659;28;20094;-71
2023/03/07 01:51:34;;;;;;;6.60;4.50;;;;;;;3.06;100.00;99809.50;4975191;28;20027;-71
2023/03/07 01:54:04;;;;;;;6.22;4.10;;;;;;;3.11;100.00;99812.94;4973552;28;20042;-71
2023/03/07 01:56:35;;;;;;;4.72;3.45;;;;;;;3.12;100.00;99807.69;5010205;28;20552;-72
2023/03/07 01:59:01;;;;;;;6.50;4.82;;;;;;;3.13;100.00;99805.94;4978700;28;20070;-71
2023/03/07 02:01:40;;;;;;;5.85;4.65;;;;;;;3.19;100.00;99801.53;4975888;28;20073;-72
2023/03/07 02:04:16;;;;;;;6.72;5.80;;;;;;;3.20;100.00;99795.41;4977368;28;20492;-71
2023/03/07 02:06:42;;;;;;;6.57;5.43;;;;;;;3.20;100.00;99800.66;5005867;28;20498;-71
2023/03/07 02:09:15;;;;;;;9.40;6.28;;;;;;;3.22;100.00;99798.91;4973910;28;20394;-71
2023/03/07 02:11:43;;;;;;;7.65;6.20;;;;;;;3.22;100.00;99803.25;5005628;28;20023;-72
2023/03/07 02:14:09;;;;;;;9.40;6.88;;;;;;;3.22;100.00;99791.03;4973259;28;20037;-71
2023/03/07 02:16:37;;;;;;;7.68;6.03;;;;;;;3.23;100.00;99784.91;4956820;28;20034;-70
2023/03/07 02:19:20;;;;;;;7.93;5.72;;;;;;;3.25;100.00;99781.44;4973130;28;20027;-71
2023/03/07 02:22:03;;;;;;;6.85;5.88;;;;;;;3.25;100.00;99786.66;4991751;28;20446;-71
2023/03/07 02:24:39;;;;;;;11.95;6.25;;;;;;;3.25;100.00;99781.44;4972541;28;20042;-71
2023/03/07 02:27:05;;;;;;;9.98;6.22;;;;;;;3.26;100.00;99775.31;4973086;28;20086;-71
2023/03/07 02:29:31;;;;;;;7.47;6.28;;;;;;;3.30;100.00;99782.25;4974152;28;20431;-71
2023/03/07 02:31:56;;;;;;;8.23;6.60;;;;;;;3.25;100.00;99770.97;4974803;28;20034;-70
2023/03/07 02:34:26;;;;;;;9.05;6.45;;;;;;;3.29;100.00;99773.56;4971161;28;20081;-72
2023/03/07 02:37:14;;;;;;;8.18;6.28;;;;;;;3.25;100.00;99766.59;4990027;28;20489;-71
2023/03/07 02:39:44;;;;;;;8.20;6.85;;;;;;;3.25;100.00;99763.13;5002841;28;20058;-71
2023/03/07 02:42:20;;;;;;;9.25;6.55;;;;;;;3.26;100.00;99760.47;4976521;28;20096;-71
2023/03/07 02:45:00;;;;;;;7.55;5.72;;;;;;;3.30;100.00;99771.78;5003317;28;20039;-71
2023/03/07 02:47:29;;;;;;;8.23;6.03;;;;;;;3.26;100.00;99764.84;5005985;28;20027;-72
2023/03/07 02:49:56;;;;;;;8.50;6.25;;;;;;;3.28;100.00;99761.34;4958895;28;20038;-71
2023/03/07 02:52:22;;;;;;;8.82;6.22;;;;;;;3.28;100.00;99763.94;4977104;28;20479;-71
2023/03/07 02:54:47;;;;;;;7.10;6.10;;;;;;;3.27;100.00;99757.00;4967856;28;20031;-71
2023/03/07 02:57:14;;;;;;;8.07;5.78;;;;;;;3.29;100.00;99764.81;4983774;28;20049;-71
2023/03/07 02:59:40;;;;;;;9.95;6.28;;;;;;;3.24;100.00;99757.03;4986529;28;20054;-71
2023/03/07 03:02:06;;;;;;;9.00;5.88;;;;;;;3.22;100.00;99749.19;4985904;28;20469;-71
2023/03/07 03:04:32;;;;;;;9.23;6.40;;;;;;;3.25;100.00;99757.88;4972371;28;20122;-71
2023/03/07 03:06:57;;;;;;;6.60;5.30;;;;;;;3.29;100.00;99752.63;4969365;28;20109;-71
2023/03/07 03:09:22;;;;;;;11.32;5.93;;;;;;;3.25;100.00;99745.66;4968838;28;20362;-71
2023/03/07 03:11:48;;;;;;;6.75;5.20;;;;;;;3.25;100.00;99752.66;4987348;28;20089;-72
2023/03/07 03:14:16;;;;;;;6.63;4.47;;;;;;;3.26;100.00;99751.75;4971881;28;20426;-72
2023/03/07 03:16:41;;;;;;;6.03;4.57;;;;;;;3.22;100.00;99754.41;4976919;28;20074;-72
2023/03/07 03:19:07;;;;;;;9.43;5.78;;;;;;;3.24;100.00;99754.41;5007736;28;20026;-71
2023/03/07 03:21:33;;;;;;;6.63;4.85;;;;;;;3.20;100.00;99743.09;4976148;28;20030;-71
2023/03/07 03:24:06;;;;;;;8.13;5.45;;;;;;;3.24;100.00;99751.78;4972242;28;20030;-72
2023/03/07 03:26:35;;;;;;;8.90;5.25;;;;;;;3.22;100.00;99748.31;4984910;28;20119;-72
2023/03/07 03:29:02;;;;;;;5.75;4.63;;;;;;;3.20;100.00;99744.84;4971828;28;20037;-72
2023/03/07 03:31:29;;;;;;;5.65;4.60;;;;;;;3.25;100.00;99740.44;5002896;28;20035;-72
2023/03/07 03:33:57;;;;;;;6.95;5.18;;;;;;;3.20;100.00;99745.72;4971876;28;20414;-72
2023/03/07 03:36:25;;;;;;;6.75;4.57;;;;;;;3.22;100.00;99737.84;5003225;28;20030;-70
2023/03/07 03:38:53;;;;;;;7.85;5.05;;;;;;;3.17;100.00;99737.91;4955663;28;20018;-69
2023/03/07 03:41:18;;;;;;;9.10;5.70;;;;;;;3.16;100.00;99733.53;4972652;28;20093;-70
2023/03/07 03:43:47;;;;;;;5.28;4.13;;;;;;;3.16;100.00;99728.28;4975095;28;20031;-80
2023/03/07 03:46:13;;;;;;;6.53;4.75;;;;;;;3.17;100.00;99729.19;4985935;28;20042;-79
2023/03/07 03:48:39;;;;;;;7.55;4.55;;;;;;;3.14;100.00;99726.56;5004046;28;20027;-80
2023/03/07 03:51:13;;;;;;;8.98;4.30;;;;;;;3.15;100.00;99718.72;4972172;28;20019;-80
2023/03/07 03:53:39;;;;;;;6.30;4.28;;;;;;;3.15;100.00;99720.47;4972831;28;20138;-80
2023/03/07 03:56:10;;;;;;;5.93;4.28;;;;;;;3.12;100.00;99717.91;4971165;28;20105;-81
2023/03/07 03:58:37;;;;;;;5.13;3.65;;;;;;;3.13;100.00;99720.47;4972827;28;20065;-80
2023/03/07 04:01:08;;;;;;;5.10;3.72;;;;;;;3.10;100.00;99712.69;4971364;28;20047;-80
2023/03/07 04:03:36;;;;;;;6.78;4.07;;;;;;;3.07;100.00;99710.09;4986657;28;20097;-81
2023/03/07 04:06:11;;;;;;;6.57;4.32;;;;;;;3.08;100.00;99703.97;4987778;28;20489;-80
2023/03/07 04:08:38;;;;;;;5.28;4.15;;;;;;;3.05;100.00;99701.38;5015595;28;20053;-80
2023/03/07 04:11:04;;;;;;;7.65;3.92;;;;;;;3.07;100.00;99697.00;5013142;28;20422;-80
2023/03/07 04:13:32;;;;;;;6.00;4.15;;;;;;;3.06;100.00;99694.41;5004165;28;20026;-81
2023/03/07 04:15:57;;;;;;;5.20;4.03;;;;;;;3.03;100.00;99694.44;5004591;28;20448;-80
2023/03/07 04:18:24;;;;;;;5.55;4.20;;;;;;;2.99;100.00;99686.63;4990715;28;20042;-80
2023/03/07 04:20:50;;;;;;;7.47;4.65;;;;;;;2.97;100.00;99679.69;4944966;28;20485;-80
2023/03/07 04:23:18;;;;;;;6.10;4.30;;;;;;;3.01;100.00;99687.47;4972000;28;20035;-80
2023/03/07 04:25:54;;;;;;;8.10;4.13;;;;;;;3.01;100.00;99678.75;4971655;28;20117;-80
2023/03/07 04:28:22;;;;;;;7.07;3.40;;;;;;;2.99;100.00;99673.56;5006920;28;20050;-80
2023/03/07 04:30:52;;;;;;;5.15;3.58;;;;;;;2.99;100.00;99665.72;4971742;28;20200;-80
2023/03/07 04:33:18;;;;;;;4.53;3.05;;;;;;;3.00;100.00;99679.66;4986185;28;20081;-80
2023/03/07 04:35:44;;;;;;;5.00;3.80;;;;;;;2.97;100.00;99674.44;4971178;28;20406;-80
2023/03/07 04:38:12;;;;;;;5.18;3.40;;;;;;;2.95;100.00;99670.97;4975673;28;20053;-80
2023/03/07 04:40:37;;;;;;;5.55;3.50;;;;;;;2.91;100.00;99666.66;4974770;28;20022;-80
2023/03/07 04:43:04;;;;;;;5.57;3.38;;;;;;;2.98;100.00;99677.03;4975086;28;20037;-80
2023/03/07 04:45:34;;;;;;;4.93;3.70;;;;;;;2.92;100.00;99669.25;4977400;28;20026;-80
2023/03/07 04:48:00;;;;;;;4.15;3.40;;;;;;;2.95;100.00;99673.59;4976195;28;20022;-80
2023/03/07 04:50:26;;;;;;;4.95;3.72;;;;;;;2.93;100.00;99664.88;4975080;28;20091;-80
2023/03/07 04:52:52;;;;;;;6.18;3.67;;;;;;;2.92;100.00;99668.41;4961615;28;20042;-80
2023/03/07 04:55:18;;;;;;;5.70;3.78;;;;;;;2.90;100.00;99651.84;4965428;28;20127;-80
2023/03/07 04:57:44;;;;;;;5.18;3.70;;;;;;;2.92;100.00;99665.78;4994857;28;20049;-80
2023/03/07 05:00:12;;;;;;;4.13;2.95;;;;;;;2.99;100.00;99660.47;4980718;28;21012;-80
2023/03/07 05:02:38;;;;;;;5.50;4.05;;;;;;;2.97;100.00;99650.91;4974320;28;20376;-80
2023/03/07 05:05:04;;;;;;;4.35;3.42;;;;;;;2.97;100.00;99653.53;4976173;28;20042;-80
2023/03/07 05:07:31;;;;;;;7.07;3.42;;;;;;;3.00;100.00;99650.88;4974165;28;20046;-81
2023/03/07 05:09:57;;;;;;;9.55;4.28;;;;;;;2.94;100.00;99651.81;4980001;28;20030;-79
2023/03/07 05:12:23;;;;;;;7.80;4.00;;;;;;;2.95;100.00;99663.13;4990693;28;20089;-81
2023/03/07 05:14:49;;;;;;;6.47;3.90;;;;;;;2.93;100.00;99654.44;4980670;28;20038;-81
2023/03/07 05:17:15;;;;;;;7.70;4.05;;;;;;;2.92;100.00;99647.47;5020564;28;20049;-80
2023/03/07 05:19:41;;;;;;;8.40;4.88;;;;;;;2.94;100.00;99648.31;4975734;28;20027;-80
2023/03/07 05:22:08;;;;;;;6.43;4.00;;;;;;;2.96;100.00;99649.16;5010068;28;20038;-80
2023/03/07 05:24:34;;;;;;;6.07;4.10;;;;;;;2.95;100.00;99645.69;4994945;28;20019;-80
2023/03/07 05:27:01;;;;;;;6.75;4.35;;;;;;;2.93;100.00;99647.44;4989716;28;20041;-80
2023/03/07 05:29:26;;;;;;;6.72;4.28;;;;;;;2.93;100.00;99649.19;4980352;28;20030;-80
2023/03/07 05:31:52;;;;;;;6.22;3.80;;;;;;;2.92;100.00;99640.50;4973855;28;20508;-80
2023/03/07 05:34:18;;;;;;;9.38;3.92;;;;;;;2.87;100.00;99639.69;4974029;28;20041;-80
2023/03/07 05:36:44;;;;;;;8.45;4.60;;;;;;;2.83;100.00;99634.50;4978627;28;20494;-80
2023/03/07 05:39:09;;;;;;;9.85;4.90;;;;;;;2.85;100.00;99638.81;4957949;28;20478;-80
2023/03/07 05:41:35;;;;;;;11.23;4.72;;;;;;;2.88;100.00;99648.38;4964780;28;20096;-80
2023/03/07 05:44:02;;;;;;;5.25;3.97;;;;;;;2.90;100.00;99644.88;4975474;28;20508;-79
2023/03/07 05:46:28;;;;;;;9.13;5.10;;;;;;;2.83;100.00;99637.97;4973899;28;20481;-79
2023/03/07 05:48:54;;;;;;;7.97;4.90;;;;;;;2.80;100.00;99646.72;4981961;28;20033;-79
2023/03/07 05:51:20;;;;;;;8.35;4.78;;;;;;;2.77;100.00;99638.91;4975781;28;20113;-79
2023/03/07 05:53:46;;;;;;;6.10;3.97;;;;;;;2.76;100.00;99637.16;4976471;28;20026;-80
2023/03/07 05:56:12;;;;;;;7.35;4.10;;;;;;;2.78;100.00;99637.16;4973547;28;20027;-80
2023/03/07 05:58:38;;;;;;;8.48;4.32;;;;;;;2.77;100.00;99632.81;4976051;28;20035;-81
2023/03/07 06:01:04;;;;;;;11.23;4.97;;;;;;;2.74;100.00;99641.50;4975588;28;20250;-80
2023/03/07 06:03:30;;;;;;;7.07;4.47;;;;;;;2.70;100.00;99637.22;4961207;28;20046;-80
2023/03/07 06:05:56;;;;;;;6.68;4.43;;;;;;;2.75;100.00;99643.28;4991419;28;20089;-81
2023/03/07 06:08:22;;;;;;;10.70;4.53;;;;;;;2.73;100.00;99639.78;4975996;28;20497;-80
2023/03/07 06:10:52;;;;;;;6.68;4.10;;;;;;;2.72;100.00;99639.81;4970459;28;20038;-80
2023/03/07 06:13:21;;;;;;;7.47;4.32;;;;;;;2.74;100.00;99638.03;4986456;28;20065;-80
2023/03/07 06:15:51;;;;;;;8.88;4.55;;;;;;;2.74;100.00;99645.88;5000888;28;20164;-80
2023/03/07 06:18:18;;;;;;;5.43;4.07;;;;;;;2.71;100.00;99638.94;4986485;28;20026;-80
2023/03/07 06:20:43;;;;;;;8.07;4.78;;;;;;;2.73;100.00;99646.78;4975857;28;20034;-80
2023/03/07 06:23:09;;;;;;;6.82;4.05;;;;;;;2.71;100.00;99644.16;4993216;28;20382;-80
2023/03/07 06:25:35;;;;;;;7.72;4.55;;;;;;;2.68;100.00;99638.13;4989254;28;20030;-81
2023/03/07 06:28:01;;;;;;;8.85;5.47;;;;;;;2.67;100.00;99649.44;4987028;28;20037;-81
2023/03/07 06:30:29;;;;;;;9.15;5.38;;;;;;;2.66;100.00;99645.09;4984562;28;20038;-80
2023/03/07 06:32:54;;;;;;;8.98;5.38;;;;;;;2.66;100.00;99645.09;4985656;28;20556;-80
2023/03/07 06:35:22;;;;;;;7.57;4.68;;;;;;;2.68;100.00;99654.66;4992468;28;20057;-81
2023/03/07 06:37:50;;;;;;;7.85;5.57;;;;;;;2.65;100.00;99649.47;4973831;28;20038;-81
2023/03/07 06:40:16;;;;;;;7.40;4.20;;;;;;;2.65;100.00;99649.47;4975160;28;20374;-81
2023/03/07 06:42:41;;;;;;;12.88;5.57;;;;;;;2.59;100.00;99645.13;4976410;28;20038;-80
2023/03/07 06:45:08;;;;;;;7.85;4.30;;;;;;;2.59;100.00;99650.38;4972336;28;20118;-81
2023/03/07 06:47:34;;;;;;;7.00;4.63;;;;;;;2.55;100.00;99642.59;4973478;28;20126;-81
2023/03/07 06:50:02;;;;;;;12.23;4.03;;;;;;;2.44;100.00;99645.25;4974933;28;20121;-80
2023/03/07 06:52:28;;;;;;;6.32;4.20;;;;;;;2.42;100.00;99648.78;4956842;28;20376;-80
2023/03/07 06:54:54;;;;;;;5.60;4.03;;;;;;;2.42;100.00;99647.03;4974542;28;20037;-79
2023/03/07 06:57:19;;;;;;;7.63;4.78;;;;;;;2.37;100.00;99648.81;4977455;28;20069;-81
2023/03/07 06:59:45;;;;;;;7.85;4.80;;;;;;;2.30;100.00;99645.41;4958281;28;20031;-80
2023/03/07 07:02:13;;;;;;;6.45;4.75;;;;;;;2.22;100.00;99657.63;4990654;28;20046;-80
2023/03/07 07:04:38;;;;;;;7.45;5.13;;;;;;;2.22;100.00;99659.38;4985315;28;20505;-80
2023/03/07 07:07:06;;;;;;;6.38;4.53;;;;;;;2.19;100.00;99665.47;4991808;28;20039;-80
2023/03/07 07:09:32;;;;;;;7.18;4.60;;;;;;;2.15;100.00;99662.03;4973594;28;20161;-80
2023/03/07 07:11:59;;;;;;;6.55;4.57;;;;;;;2.12;100.00;99669.00;4974225;28;20523;-80
2023/03/07 07:14:25;;;;;;;7.78;5.22;;;;;;;2.08;100.00;99673.41;4975875;28;20054;-80
2023/03/07 07:16:50;;;;;;;6.55;5.07;;;;;;;2.07;100.00;99662.94;4973345;28;20032;-80
2023/03/07 07:19:16;;;;;;;7.63;5.47;;;;;;;2.04;100.00;99658.63;4976320;28;20350;-80
2023/03/07 07:21:42;;;;;;;7.07;4.88;;;;;;;2.05;100.00;99669.91;4988044;28;20049;-80
2023/03/07 07:24:11;;;;;;;7.65;5.38;;;;;;;2.04;100.00;99661.22;4975963;28;20058;-81
2023/03/07 07:26:36;;;;;;;8.85;5.72;;;;;;;2.04;100.00;99658.63;4972899;28;20034;-81
2023/03/07 07:29:02;;;;;;;7.35;5.00;;;;;;;2.04;100.00;99673.41;4976935;28;20026;-80
2023/03/07 07:31:28;;;;;;;7.88;6.28;;;;;;;2.02;100.00;99683.88;4961471;28;20070;-81
2023/03/07 07:33:54;;;;;;;9.73;6.80;;;;;;;2.00;100.00;99685.59;4976748;28;20055;-80
2023/03/07 07:36:22;;;;;;;8.35;6.88;;;;;;;1.98;100.00;99694.34;4992114;28;20101;-80
2023/03/07 07:38:49;;;;;;;9.52;8.18;;;;;;;1.94;100.00;99693.50;4988994;28;20093;-80
2023/03/07 07:41:14;;;;;;;12.85;10.13;;;;;;;1.89;100.00;99709.19;4974948;28;20030;-81
2023/03/07 07:43:40;;;;;;;9.70;8.45;;;;;;;1.82;100.00;99701.38;4972413;28;20027;-81
2023/03/07 07:46:15;;;;;;;11.48;9.60;;;;;;;1.71;100.00;99707.53;4976903;28;20035;-81
2023/03/07 07:48:41;;;;;;;12.50;9.32;;;;;;;1.72;100.00;99717.06;4972859;28;20030;-80
2023/03/07 07:51:07;;;;;;;10.43;8.10;;;;;;;1.72;100.00;99724.91;4972263;28;20031;-80
2023/03/07 07:53:35;;;;;;;10.48;8.20;;;;;;;1.70;100.00;99731.00;4973386;28;20074;-80
2023/03/07 07:56:00;;;;;;;10.23;7.90;;;;;;;1.70;100.00;99724.03;4972749;28;20031;-79
2023/03/07 07:58:27;;;;;;;10.05;8.38;;;;;;;1.71;100.00;99728.41;4972101;28;20035;-80
2023/03/07 08:00:53;;;;;;;11.57;8.40;;;;;;;1.74;100.00;99724.06;4963425;28;20501;-80
2023/03/07 08:03:18;;;;;;;8.05;6.20;;;;;;;1.76;100.00;99727.53;4981496;28;20097;-81
2023/03/07 08:05:47;;;;;;;8.63;5.32;;;;;;;1.74;100.00;99731.88;4985381;28;20042;-81
2023/03/07 08:08:16;;;;;;;6.82;4.78;;;;;;;1.60;100.00;99735.38;4981341;28;20038;-80
2023/03/07 08:10:43;;;;;;;6.85;4.70;;;;;;;1.60;100.00;99735.38;4992482;28;20045;-81
2023/03/07 08:13:11;;;;;;;5.60;4.05;;;;;;;1.54;100.00;99742.38;4992353;28;20022;-80
2023/03/07 08:15:37;;;;;;;6.85;4.60;;;;;;;1.53;100.00;99741.50;4990909;28;20030;-80
2023/03/07 08:18:02;;;;;;;5.50;3.67;;;;;;;1.53;100.00;99745.84;4992414;28;20109;-80
2023/03/07 08:20:28;;;;;;;6.55;4.20;;;;;;;1.48;100.00;99740.63;4963643;28;20122;-80
2023/03/07 08:22:54;;;;;;;5.40;3.70;;;;;;;1.41;100.00;99745.03;4973103;28;20118;-81
2023/03/07 08:25:22;;;;;;;6.47;3.80;;;;;;;1.42;100.00;99743.28;4972791;28;20023;-80
2023/03/07 08:27:53;;;;;;;5.97;3.70;;;;;;;1.38;100.00;99746.75;5008395;28;20126;-80
2023/03/07 08:30:23;;;;;;;4.50;3.13;;;;;;;1.38;100.00;99755.44;4972664;28;20042;-80
2023/03/07 08:32:51;;;;;;;4.27;3.13;;;;;;;1.39;100.00;99757.19;5010589;28;20034;-79
2023/03/07 08:35:17;;;;;;;4.70;3.15;;;;;;;1.35;100.00;99752.84;4990955;28;20092;-79
2023/03/07 08:37:43;;;;;;;5.18;3.08;;;;;;;1.32;100.00;99754.59;4986617;28;20035;-79
2023/03/07 08:40:09;;;;;;;5.25;3.97;;;;;;;1.31;100.00;99756.34;5008433;28;20033;-79
2023/03/07 08:42:35;;;;;;;6.82;3.92;;;;;;;1.24;100.00;99750.28;4974928;28;20031;-79
2023/03/07 08:45:00;;;;;;;6.45;3.95;;;;;;;1.25;100.00;99744.16;4975188;28;20465;-79
2023/03/07 08:47:26;;;;;;;4.20;3.00;;;;;;;1.24;100.00;99745.06;4976510;28;20045;-78
2023/03/07 08:49:51;;;;;;;5.63;3.30;;;;;;;1.22;100.00;99743.31;4971754;28;20033;-79
2023/03/07 08:52:17;;;;;;;5.72;3.30;;;;;;;1.23;100.00;99745.03;4974535;28;20038;-79
2023/03/07 08:54:42;;;;;;;4.18;3.08;;;;;;;1.24;100.00;99747.66;4990851;28;20122;-78
2023/03/07 08:57:08;;;;;;;3.88;3.15;;;;;;;1.25;100.00;99740.69;4974493;28;20046;-78
2023/03/07 08:59:33;;;;;;;5.22;3.33;;;;;;;1.22;100.00;99743.31;4972351;28;20038;-78
2023/03/07 09:01:59;;;;;;;5.32;3.05;;;;;;;1.20;100.00;99743.31;4975665;28;20046;-78
2023/03/07 09:04:24;;;;;;;4.50;3.30;;;;;;;1.24;100.00;99744.19;4971000;28;20063;-79
2023/03/07 09:06:50;;;;;;;5.13;3.28;;;;;;;1.17;100.00;99739.84;5003094;28;20478;-78
2023/03/07 09:09:16;;;;;;;5.13;3.45;;;;;;;1.24;100.00;99741.59;4974162;28;20023;-78
2023/03/07 09:11:41;;;;;;;6.32;3.35;;;;;;;1.16;100.00;99744.16;4974273;28;20371;-78
2023/03/07 09:14:07;;;;;;;5.10;3.30;;;;;;;1.20;100.00;99742.44;4999150;28;20031;-78
2023/03/07 09:16:33;;;;;;;6.63;4.00;;;;;;;1.12;100.00;99739.00;4972967;28;20046;-78
2023/03/07 09:18:58;;;;;;;7.18;4.43;;;;;;;1.16;100.00;99736.34;4971983;28;20393;-77
2023/03/07 09:21:24;;;;;;;5.25;4.10;;;;;;;1.14;100.00;99756.38;4971665;28;20035;-78
2023/03/07 09:23:49;;;;;;;4.45;3.70;;;;;;;1.15;100.00;99759.84;5016587;28;20023;-78
2023/03/07 09:26:15;;;;;;;5.28;4.30;;;;;;;1.14;100.00;99753.75;4972302;28;20043;-78
2023/03/07 09:28:41;;;;;;;5.72;4.03;;;;;;;1.21;100.00;99752.88;4977057;28;20035;-78
2023/03/07 09:31:08;;;;;;;6.43;4.57;;;;;;;1.23;100.00;99768.50;4976896;28;20030;-79
2023/03/07 09:33:34;;;;;;;5.65;4.32;;;;;;;1.25;100.00;99756.34;4974645;28;20034;-79
2023/03/07 09:36:06;;;;;;;6.22;4.28;;;;;;;1.23;100.00;99756.34;5008951;28;20034;-78
2023/03/07 09:38:32;;;;;;;6.32;4.22;;;;;;;1.28;100.00;99762.41;4982504;28;20070;-78
2023/03/07 09:41:34;;;;;;;8.32;5.10;;;;;;;1.30;100.00;99757.22;4983223;28;20033;-78
2023/03/07 09:44:21;;;;;;;7.18;4.47;;;;;;;1.32;100.00;99759.81;4967183;28;20406;-78
2023/03/07 09:47:03;;;;;;;6.57;4.88;;;;;;;1.35;100.00;99759.81;4990326;28;20035;-78
2023/03/07 09:49:43;;;;;;;6.50;5.20;;;;;;;1.33;100.00;99758.94;4978891;28;20398;-79
2023/03/07 09:52:13;;;;;;;5.22;4.13;;;;;;;1.32;100.00;99757.22;5012795;28;20038;-78
2023/03/07 09:54:44;;;;;;;8.07;6.05;;;;;;;1.36;100.00;99762.44;4994691;28;20043;-79
2023/03/07 09:57:25;;;;;;;7.75;6.47;;;;;;;1.38;100.00;99757.19;4973925;28;20035;-78
2023/03/07 09:59:54;;;;;;;7.10;5.22;;;;;;;1.43;100.00;99764.13;4975220;28;20113;-78
2023/03/07 10:02:29;;;;;;;9.27;6.10;;;;;;;1.44;100.00;99763.28;4975304;28;20081;-78
2023/03/07 10:05:05;;;;;;;9.98;5.38;;;;;;;1.49;100.00;99758.91;4981784;28;20053;-78
2023/03/07 10:07:31;;;;;;;8.63;5.55;;;;;;;1.55;100.00;99764.97;4989104;28;20485;-79
2023/03/07 10:10:04;;;;;;;4.75;3.70;;;;;;;1.56;100.00;99751.94;4982846;28;20034;-78
2023/03/07 10:12:29;;;;;;;5.13;3.95;;;;;;;1.62;100.00;99761.50;4977557;28;20375;-78
2023/03/07 10:15:11;;;;;;;5.55;4.40;;;;;;;1.66;100.00;99763.22;4982792;28;20037;-78
2023/03/07 10:18:04;;;;;;;7.05;4.50;;;;;;;1.72;100.00;99752.75;4988244;28;20369;-78
2023/03/07 10:20:51;;;;;;;4.25;3.53;;;;;;;1.81;100.00;99754.47;4957794;28;20086;-78
2023/03/07 10:23:42;;;;;;;4.95;3.80;;;;;;;1.88;100.00;99764.00;4975073;28;20086;-78
2023/03/07 10:26:24;;;;;;;5.53;4.15;;;;;;;1.93;100.00;99759.66;5006189;28;20031;-78
2023/03/07 10:28:49;;;;;;;5.45;3.83;;;;;;;1.98;100.00;99755.28;4975291;28;20061;-78
2023/03/07 10:31:24;;;;;;;4.88;3.20;;;;;;;1.95;100.00;99752.66;4980979;28;20469;-78
2023/03/07 10:33:52;;;;;;;5.10;3.45;;;;;;;1.97;100.00;99756.13;4991789;28;20038;-78
2023/03/07 10:36:19;;;;;;;4.82;3.05;;;;;;;2.01;100.00;99762.22;5025403;28;20084;-78
2023/03/07 10:39:13;;;;;;;4.50;3.55;;;;;;;2.05;100.00;99759.59;4993888;28;20034;-78
2023/03/07 10:41:39;;;;;;;5.30;3.83;;;;;;;2.13;100.00;99763.03;4992554;28;20494;-78
2023/03/07 10:44:12;;;;;;;5.18;3.83;;;;;;;2.16;100.00;99764.75;4993715;28;20026;-77
2023/03/07 10:46:38;;;;;;;5.20;3.78;;;;;;;2.18;100.00;99762.13;4986115;28;20066;-78
2023/03/07 10:49:07;;;;;;;5.18;3.92;;;;;;;2.17;100.00;99758.66;4974271;28;20194;-78
2023/03/07 10:51:49;;;;;;;5.15;4.03;;;;;;;2.19;100.00;99762.13;4993192;28;20046;-78
2023/03/07 10:54:29;;;;;;;6.03;4.43;;;;;;;2.25;100.00;99756.00;4978982;28;20042;-78
2023/03/07 10:57:11;;;;;;;5.50;4.20;;;;;;;2.22;100.00;99750.78;4981548;28;20217;-78
2023/03/07 10:59:39;;;;;;;6.20;4.18;;;;;;;2.27;100.00;99767.31;4988864;28;20031;-79
2023/03/07 11:02:23;;;;;;;5.85;4.43;;;;;;;2.31;100.00;99764.69;4974851;28;20047;-78
2023/03/07 11:04:49;;;;;;;5.95;4.07;;;;;;;2.36;100.00;99767.25;4988551;28;20572;-78
2023/03/07 11:07:30;;;;;;;6.03;4.78;;;;;;;2.39;100.00;99762.00;4984871;28;20023;-78
2023/03/07 11:09:59;;;;;;;5.28;4.43;;;;;;;2.34;100.00;99763.78;5004789;28;20118;-78
2023/03/07 11:12:26;;;;;;;5.38;4.25;;;;;;;2.28;100.00;99756.00;4973930;28;20014;-78
2023/03/07 11:15:08;;;;;;;6.22;4.25;;;;;;;2.30;100.00;99755.13;4972081;28;20133;-78
2023/03/07 11:17:42;;;;;;;4.80;3.97;;;;;;;2.35;100.00;99755.94;4975486;28;20486;-78
2023/03/07 11:20:21;;;;;;;5.65;4.47;;;;;;;2.40;100.00;99755.03;4989596;28;20093;-78
2023/03/07 11:22:48;;;;;;;4.82;3.75;;;;;;;2.45;100.00;99756.78;4979213;28;20039;-78
2023/03/07 11:25:24;;;;;;;5.35;3.88;;;;;;;2.49;100.00;99755.84;4999040;28;20033;-78
2023/03/07 11:27:57;;;;;;;5.75;3.83;;;;;;;2.49;100.00;99761.06;4986478;28;20481;-78
2023/03/07 11:30:39;;;;;;;4.40;3.53;;;;;;;2.49;100.00;99755.00;5020239;28;20486;-78
2023/03/07 11:33:16;;;;;;;4.45;3.88;;;;;;;2.43;100.00;99750.69;5004808;28;20023;-77
2023/03/07 11:35:56;;;;;;;6.40;4.68;;;;;;;2.45;100.00;99753.25;4986676;28;20468;-79
2023/03/07 11:38:51;;;;;;;5.30;3.90;;;;;;;2.43;100.00;99755.91;4983411;28;20105;-78
2023/03/07 11:41:20;;;;;;;5.45;3.88;;;;;;;2.49;100.00;99755.00;4989761;28;20121;-78
2023/03/07 11:43:55;;;;;;;8.07;4.57;;;;;;;2.48;100.00;99755.88;5014023;28;20093;-78